Nearby METAR Reports

 

KPBH - Phillips, Wisconsin, USA
Distance from station: SE 13mi, 21km
Updated: 11/28/2020 10:35pm
Clear
Clear
 Wind from SW
Wind: SW 5 mph , 7 km/h
Temperature: 36°F , 2°C
Wind Chill: 32°F , 0°C
Dew Point: 28°F , -2°C
Humidity: 75%
Barometer: 29.83 inHg , 1010.2 hPa
Clouds: Clear
Visibility: 10 miles , 16 km
2020/11/29 04:35 KPBH 290435Z AUTO 22004KT 10SM CLR 02/M02 A2983 RMK AO2 T00151025
KRCX - Ladysmith/Rusk, Wisconsin, USA
Distance from station: SW 29mi, 46km
Updated: 11/28/2020 10:15pm

 Wind from calm
Wind: Calm
Temperature: 34°F , 1°C
Dew Point: 28°F , -2°C
Humidity: 81%
Barometer: 29.86 inHg , 1011.2 hPa
Visibility: 10 miles , 16 km
2020/11/29 04:15 KRCX 290415Z AUTO 00000KT 10SM 01/M02 A2986 RMK AO2 T00101024
 
KD25 - Manitowish Water, Wisconsin, USA
Distance from station: ENE 41mi, 66km
Updated: 11/28/2020 10:15pm
Clear
Clear
 Wind from S
Wind: S 3 mph , 6 km/h
Temperature: 27°F , -3°C
Dew Point: 25°F , -4°C
Humidity: 93%
Barometer: 29.80 inHg , 1009.1 hPa
Clouds: Clear
Visibility: 10 miles , 16 km
2020/11/29 04:15 KD25 290415Z AUTO 19003KT 10SM CLR M03/M04 A2980 RMK AO2 T10311043
KHYR - Hayward, Wisconsin, USA
Distance from station: WNW 42mi, 68km
Updated: 11/28/2020 9:53pm
Clear
Clear
 Wind from calm
Wind: Calm
Temperature: 27°F , -3°C
Dew Point: 21°F , -6°C
Humidity: 80%
Barometer: 29.82 inHg , 1009.8 hPa
Clouds: Clear
Visibility: 10 miles , 16 km
2020/11/29 03:53 KHYR 290353Z AUTO 00000KT 10SM CLR M03/M06 A2982 RMK AO2 SLP112 T10281056
 
KARV - Minocqua/Woodruf, Wisconsin, USA
Distance from station: E 44mi, 71km
Updated: 11/28/2020 10:15pm
Clear
Clear
 Wind from calm
Wind: Calm
Temperature: 32°F , 0°C
Dew Point: 23°F , -5°C
Humidity: 69%
Barometer: 29.81 inHg , 1009.5 hPa
Clouds: Clear
Visibility: 10 miles , 16 km
2020/11/29 04:15 KARV 290415Z AUTO 00000KT 10SM CLR 00/M05 A2981 RMK AO2 T10031053
KTKV - Tomahawk Regnl, Wisconsin, USA
Distance from station: ESE 46mi, 74km
Updated: 11/28/2020 10:15pm
Clear
Clear
 Wind from calm
Wind: Calm
Temperature: 34°F , 1°C
Dew Point: 27°F , -3°C
Humidity: 75%
Barometer: 29.84 inHg , 1010.5 hPa
Clouds: Clear
Visibility: 10 miles , 16 km
2020/11/29 04:15 KTKV 290415Z AUTO 00000KT 10SM CLR 01/M03 A2984 RMK AO2 T00111026 PWINO